METAR Reports for Maryland

 

KGAI - Gaithersburg, Maryland, USA
Distance from station: NNE 28mi, 44km
Updated: Wed, 17-Jan-2018 8:56am EST
Few Clouds
Few Clouds
 Wind from NW
Wind: NW 9 mph , 15 km/h
Temperature: 21°F , -6°C
Wind Chill: 11°F , -12°C
Dew Point: 14°F , -10°C
Humidity: 74%
Barometer: 30.39 inHg , 1029.1 hPa
Clouds: Few Clouds
Visibility: 10 miles , 16 km
Cloud details: Few Clouds 4700 ft
2018/01/17 13:56 KGAI 171356Z AUTO 31008KT 10SM FEW047 M06/M10 A3039 RMK AO2 SLP324 T10561100 FZRANO
KCGS - College Park, Maryland, USA
Distance from station: ENE 29mi, 47km
Updated: Wed, 17-Jan-2018 9:37am EST
Overcast
Overcast
 Wind from NW
Wind: NW 13 mph , 20 km/h, Gust: 18 mph , 30 km/h
Temperature: 25°F , -4°C
Wind Chill: 13°F , -11°C
Dew Point: 10°F , -12°C
Humidity: 54%
Barometer: 30.41 inHg , 1029.8 hPa
Clouds: Overcast
Visibility: 10 miles , 16 km
Cloud details: Mostly cloudy 4300 ft
Overcast 5000 ft
2018/01/17 14:37 KCGS 171437Z AUTO 31011G16KT 10SM BKN043 OVC050 M04/M12 A3041 RMK AO1 T10431119
KADW - Andrews Afb, Maryland, USA
Distance from station: E 30mi, 48km
Updated: Wed, 17-Jan-2018 8:56am EST
Clear
Clear
 Wind from NNW
Wind: NNW 17 mph , 28 km/h
Temperature: 25°F , -4°C
Wind Chill: 12°F , -11°C
Dew Point: 16°F , -9°C
Humidity: 69%
Barometer: 30.37 inHg , 1028.4 hPa
Clouds: Clear
Visibility: 10 miles , 16 km
2018/01/17 13:56 KADW 171356Z AUTO 34015KT 10SM CLR M04/M09 A3037 RMK AO2 UPB10E13 SLP295 P0000 T10421094 $
 
KFME - Fort Meade, Maryland, USA
Distance from station: ENE 40mi, 64km
Updated: Wed, 17-Jan-2018 9:36am EST
Partly cloudy
Partly cloudy
 Wind from NW
Wind: NW 9 mph , 15 km/h
Temperature: 27°F , -3°C
Wind Chill: 18°F , -8°C
Dew Point: 16°F , -9°C
Humidity: 64%
Barometer: 30.42 inHg , 1030.1 hPa
Clouds: Partly cloudy
Visibility: 10 miles , 16 km
Cloud details: Partly cloudy 4800 ft
Partly cloudy 6000 ft
Partly cloudy 7000 ft
2018/01/17 14:36 KFME 171436Z AUTO 32008KT 290V350 10SM SCT048 SCT060 SCT070 M03/M09 A3042 RMK AO1
KFDK - Frederick, Maryland, USA
Distance from station: N 41mi, 67km
Updated: Wed, 17-Jan-2018 8:49am EST
Overcast
Overcast
 Wind from NNW
Wind: NNW 10 mph , 17 km/h
Temperature: 23°F , -5°C
Wind Chill: 13°F , -11°C
Dew Point: 7°F , -14°C
Humidity: 50%
Barometer: 30.45 inHg , 1031.2 hPa
Clouds: Overcast
Visibility: 10 miles , 16 km
Cloud details: Overcast 6500 ft
2018/01/17 13:49 KFDK 171349Z 34009KT 10SM OVC065 M05/M14 A3045
KBWI - Balto/Wash Intl, Maryland, USA
Distance from station: ENE 46mi, 75km
Updated: Wed, 17-Jan-2018 8:54am EST
Light snow, Overcast
Light snow, Overcast
 Wind from WNW
Wind: WNW 12 mph , 19 km/h
Temperature: 25°F , -4°C
Wind Chill: 14°F , -10°C
Dew Point: 18°F , -8°C
Humidity: 74%
Barometer: 30.37 inHg , 1028.4 hPa
Summary: Light Snow
Clouds: Overcast
Visibility: 10 miles , 16 km
Cloud details: Few Clouds 1200 ft
Partly cloudy 2700 ft
Overcast 5000 ft
2018/01/17 13:54 KBWI 171354Z 30010KT 10SM -SN FEW012 SCT027 OVC050 M04/M08 A3037 RMK AO2 SNE08B29 SLP287 P0000 T10441078
 
KNAK - Annapolis/Naval, Maryland, USA
Distance from station: ENE 52mi, 83km
Updated: Wed, 17-Jan-2018 8:54am EST
Light snow, Overcast
Light snow, Overcast
 Wind from NW
Wind: NW 12 mph , 19 km/h
Temperature: 28°F , -2°C
Wind Chill: 18°F , -8°C
Dew Point: 23°F , -5°C
Humidity: 80%
Barometer: 30.37 inHg , 1028.4 hPa
Summary: Light Snow
Clouds: Overcast
Visibility: 4 miles , 6 km
Cloud details: Overcast 4300 ft
2018/01/17 13:54 KNAK 171354Z AUTO 31010KT 4SM -SN OVC043 M02/M05 A3037 RMK AO2 SNE03B38 SLP287 P0000 T10221050
KDMH - Baltimore/Dwntwn, Maryland, USA
Distance from station: NE 54mi, 87km
Updated: Wed, 17-Jan-2018 8:54am EST

 
Temperature: 27°F , -3°C
Dew Point: 16°F , -9°C
Humidity: 64%
Barometer: 30.45 inHg , 1031.2 hPa
2018/01/17 13:54 KDMH 171354Z AUTO M03/M09 A3045 RMK AO1 SLP312 T10331094
KRSP - Nsf Thurmont, Maryland, USA
Distance from station: N 58mi, 93km
Updated: Wed, 17-Jan-2018 9:30am EST
Few Clouds
Few Clouds
 Wind from NNW
Wind: NNW 15 mph , 24 km/h, Gust: 26 mph , 43 km/h
Temperature: 12°F , -11°C
Wind Chill: -4°F , -20°C
Dew Point: 9°F , -13°C
Humidity: 85%
Barometer: 30.47 inHg , 1031.8 hPa
Clouds: Few Clouds
Visibility: 8 miles , 13 km
Cloud details: Few Clouds 6500 ft
2018/01/17 14:30 KRSP 171430Z AUTO 34013G23KT 8SM FEW065 M11/M13 A3047 RMK AO2 PK WND 34027/1405 $
 
K2W6 - St Marys (duke), Maryland, USA
Distance from station: SE 58mi, 94km
Updated: Wed, 17-Jan-2018 9:37am EST
Overcast
Overcast
 Wind from NW
Wind: NW 8 mph , 13 km/h
Temperature: 27°F , -3°C
Wind Chill: 19°F , -7°C
Dew Point: 21°F , -6°C
Humidity: 80%
Barometer: 30.39 inHg , 1029.1 hPa
Clouds: Overcast
Visibility: 4 miles , 6 km
Cloud details: Partly cloudy 1700 ft
Mostly cloudy 3000 ft
Overcast 3500 ft
2018/01/17 14:37 K2W6 171437Z AUTO 31007KT 280V340 4SM SCT017 BKN030 OVC035 M03/M06 A3039 RMK AO1
KDMW - Carroll Cnty, Maryland, USA
Distance from station: NNE 58mi, 94km
Updated: Wed, 17-Jan-2018 9:35am EST
Clear
Clear
 Wind from NW
Wind: NW 10 mph , 17 km/h, Gust: 18 mph , 30 km/h
Temperature: 21°F , -6°C
Wind Chill: 10°F , -12°C
Dew Point: 12°F , -11°C
Humidity: 68%
Barometer: 30.37 inHg , 1028.4 hPa
Clouds: Clear
Visibility: 10 miles , 16 km
2018/01/17 14:35 KDMW 171435Z AUTO 32009G16KT 10SM CLR M06/M11 A3037 RMK AO2
KW29 - Stevensville, Maryland, USA
Distance from station: ENE 60mi, 96km
Updated: Wed, 17-Jan-2018 9:35am EST
Mist, Mostly cloudy
Mist, Mostly cloudy
 
Temperature: 27°F , -3°C
Dew Point: 23°F , -5°C
Humidity: 86%
Barometer: 30.38 inHg , 1028.8 hPa
Summary: Mist
Clouds: Mostly cloudy
Visibility: 5 miles , 8 km
Cloud details: Partly cloudy 900 ft
Partly cloudy 1300 ft
Mostly cloudy 3700 ft
2018/01/17 14:35 KW29 171435Z AUTO 5SM BR SCT009 SCT013 BKN037 M03/M05 A3038 RMK AO2
 
KHGR - Hagerstown, Maryland, USA
Distance from station: NNW 63mi, 102km
Updated: Wed, 17-Jan-2018 8:53am EST
Haze, Few clouds
Haze, Few clouds
 Wind from NW
Wind: NW 12 mph , 19 km/h
Temperature: 18°F , -8°C
Wind Chill: 5°F , -15°C
Dew Point: 9°F , -13°C
Humidity: 68%
Barometer: 30.41 inHg , 1029.8 hPa
Summary: Haze
Clouds: Few Clouds
Visibility: 6 miles , 10 km
Cloud details: Few Clouds 7000 ft
2018/01/17 13:53 KHGR 171353Z 32010KT 6SM HZ FEW070 M08/M13 A3041 RMK AO2 SLP318 T10781128
KMTN - Baltimore/Martin, Maryland, USA
Distance from station: ENE 64mi, 103km
Updated: Wed, 17-Jan-2018 8:50am EST
Overcast
Overcast
 Wind from WNW
Wind: WNW 12 mph , 19 km/h, Gust: 17 mph , 28 km/h
Temperature: 28°F , -2°C
Wind Chill: 18°F , -8°C
Dew Point: 27°F , -3°C
Humidity: 93%
Barometer: 30.39 inHg , 1029.1 hPa
Clouds: Overcast
Visibility: 4 miles , 6 km
Cloud details: Mostly cloudy 1500 ft
Overcast 4400 ft
2018/01/17 13:50 KMTN 171350Z 30010G15KT 4SM BKN015 OVC044 M02/M03 A3039
KNHK - Patuxent River, Maryland, USA
Distance from station: SE 67mi, 108km
Updated: Wed, 17-Jan-2018 9:44am EST
Light snow, Mist, Overcast
Light snow, Mist, Overcast
 Wind from NW
Wind: NW 21 mph , 33 km/h
Temperature: 27°F , -3°C
Wind Chill: 13°F , -11°C
Dew Point: 25°F , -4°C
Humidity: 93%
Barometer: 30.37 inHg , 1028.4 hPa
Summary: Light snow, Mist
Clouds: Overcast
Visibility: 2 miles , 3 km
Cloud details: Mostly cloudy 1300 ft
Mostly cloudy 4700 ft
Overcast 5500 ft
2018/01/17 14:44 KNHK 171444Z 32018KT 2SM -SN BR BKN013 BKN047 OVC055 M03/M04 A3037 RMK P000 T10281044
 
KNUI - Webster Naval, Maryland, USA
Distance from station: SE 71mi, 114km
Updated: Wed, 17-Jan-2018 9:06am EST
Haze, Overcast
Haze, Overcast
 Wind from NW
Wind: NW 10 mph , 17 km/h, Gust: 17 mph , 28 km/h
Temperature: 28°F , -2°C
Wind Chill: 19°F , -7°C
Dew Point: 23°F , -5°C
Humidity: 80%
Barometer: 30.36 inHg , 1028.1 hPa
Summary: Haze
Clouds: Overcast
Visibility: 4 miles , 6 km
Cloud details: Few Clouds 1400 ft
Mostly cloudy 4500 ft
Overcast 5500 ft
2018/01/17 14:06 KNUI 171406Z AUTO 31009G15KT 4SM HZ FEW014 BKN045 OVC055 M02/M05 A3036 RMK AO2 SNE06 P0000 T10171050
KESN - Easton/Newnam, Maryland, USA
Distance from station: E 73mi, 117km
Updated: Wed, 17-Jan-2018 8:53am EST
Light snow, Overcast
Light snow, Overcast
 Wind from NNW
Wind: NNW 17 mph , 28 km/h, Gust: 24 mph , 39 km/h
Temperature: 30°F , -1°C
Wind Chill: 18°F , -8°C
Dew Point: 28°F , -2°C
Humidity: 93%
Barometer: 30.39 inHg , 1029.1 hPa
Summary: Light Snow
Clouds: Overcast
Visibility: 2 miles , 3 km
Cloud details: Overcast 900 ft
2018/01/17 13:53 KESN 171353Z 33015G21KT 2SM -SN OVC009 M01/M02 A3039
KCGE - Cambridge-Dorch, Maryland, USA
Distance from station: ESE 77mi, 124km
Updated: Wed, 17-Jan-2018 9:35am EST
Mist, Mostly cloudy
Mist, Mostly cloudy
 Wind from NW
Wind: NW 13 mph , 20 km/h
Temperature: 28°F , -2°C
Wind Chill: 17°F , -8°C
Dew Point: 27°F , -3°C
Humidity: 93%
Barometer: 30.36 inHg , 1028.1 hPa
Summary: Mist
Clouds: Mostly cloudy
Visibility: 4 miles , 6 km
Cloud details: Mostly cloudy 1100 ft
2018/01/17 14:35 KCGE 171435Z AUTO 32011KT 4SM BR BKN011 M02/M03 A3036 RMK A01
 
KAPG - Aberdeen/Phillip, Maryland, USA
Distance from station: NE 81mi, 130km
Updated: Wed, 17-Jan-2018 8:58am EST
Light snow, Mist, Overcast
Light snow, Mist, Overcast
 Wind from NW
Wind: NW 12 mph , 19 km/h
Temperature: 25°F , -4°C
Wind Chill: 14°F , -10°C
Dew Point: 23°F , -5°C
Humidity: 93%
Barometer: 30.39 inHg , 1029.1 hPa
Summary: Light snow, Mist
Clouds: Overcast
Visibility: 3 miles , 5 km
Cloud details: Mostly cloudy 1500 ft
Overcast 4000 ft
2018/01/17 13:58 KAPG 171358Z 32010KT 3SM -SN BR BKN015 OVC040 M04/M05 A3039 RMK AO2A SLPNO P0000 $
KCBE - Cumberland Reg, Maryland, USA
Distance from station: NW 91mi, 146km
Updated: Wed, 17-Jan-2018 9:19am EST
Clear
Clear
 
Temperature: 21°F , -6°C
Dew Point: 5°F , -15°C
Humidity: 49%
Clouds: Clear
Visibility: 10 miles , 16 km
2018/01/17 14:19 KCBE 171419Z AUTO 10SM CLR M06/M15 RMK AO1
KSBY - Salisbury, Maryland, USA
Distance from station: ESE 109mi, 175km
Updated: Wed, 17-Jan-2018 9:31am EST
Mist, Overcast
Mist, Overcast
 Wind from NW
Wind: NW 14 mph , 22 km/h
Temperature: 34°F , 1°C
Wind Chill: 25°F , -4°C
Dew Point: 28°F , -2°C
Humidity: 81%
Barometer: 30.33 inHg , 1027.1 hPa
Summary: Mist
Clouds: Overcast
Visibility: 4 miles , 6 km
Cloud details: Overcast 1000 ft
2018/01/17 14:31 KSBY 171431Z 32012KT 4SM BR OVC010 01/M02 A3033 RMK AO2 CIG 008V012 T00061017
 
K2G4 - Garrett Co, Maryland, USA
Distance from station: WNW 115mi, 186km
Updated: Wed, 17-Jan-2018 9:35am EST
Overcast
Overcast
 Wind from W
Wind: W 6 mph , 9 km/h
Temperature: 3°F , -16°C
Wind Chill: -8°F , -22°C
Dew Point: -0°F , -18°C
Humidity: 85%
Barometer: 30.24 inHg , 1024 hPa
Clouds: Overcast
Visibility: 1/2 mile , 2 km
Cloud details: Overcast 600 ft
2018/01/17 14:35 K2G4 171435Z AUTO 28005KT 1/2SM OVC006 M16/M18 A3024 RMK AO1
KOXB - Ocean City, Maryland, USA
Distance from station: ESE 129mi, 208km
Updated: Wed, 17-Jan-2018 8:53am EST
Mist, Overcast
Mist, Overcast
 Wind from NNW
Wind: NNW 13 mph , 20 km/h
Temperature: 36°F , 2°C
Wind Chill: 27°F , -3°C
Dew Point: 32°F , 0°C
Humidity: 87%
Barometer: 30.29 inHg , 1025.7 hPa
Summary: Mist
Clouds: Overcast
Visibility: 4 miles , 6 km
Cloud details: Overcast 1100 ft
2018/01/17 13:53 KOXB 171353Z AUTO 33011KT 4SM BR OVC011 02/00 A3029 RMK AO2 SLP257 T00170000